Time;durP1;ratioP1;P1;durP2;ratioP2;P2;SDS_P1;SDS_P2;PMS_P1;PMS_P2;Temp;Humidity;BMP_temperature;BMP_pressure;BME280_temperature;BME280_humidity;BME280_pressure;Samples;Min_cycle;Max_cycle;Signal;HPM_P1;HPM_P2
2022/09/14 00:02:18;;;;;;;6.80;6.30;;;18.80;99.90;;;;;;4907040;29;20194;-79
2022/09/14 00:04:45;;;;;;;6.37;5.90;;;18.70;99.90;;;;;;4889226;29;20223;-78
2022/09/14 00:07:11;;;;;;;6.73;6.23;;;18.80;99.90;;;;;;4889822;29;20579;-79
2022/09/14 00:09:38;;;;;;;7.00;6.40;;;18.80;99.90;;;;;;4889721;29;20608;-79
2022/09/14 00:12:05;;;;;;;6.90;6.40;;;18.80;99.90;;;;;;4889680;29;20629;-79
2022/09/14 00:14:32;;;;;;;3.73;3.20;;;18.90;99.90;;;;;;4907086;29;20279;-78
2022/09/14 00:17:00;;;;;;;3.27;2.97;;;18.80;99.90;;;;;;4906689;29;20209;-78
2022/09/14 00:19:28;;;;;;;3.03;2.80;;;18.80;99.90;;;;;;4889506;29;20204;-79
2022/09/14 00:21:57;;;;;;;3.50;3.20;;;18.80;99.90;;;;;;4889797;29;20215;-79
2022/09/14 00:24:26;;;;;;;3.43;3.10;;;18.80;99.90;;;;;;4906804;29;20600;-78
2022/09/14 00:26:53;;;;;;;4.00;3.30;;;18.80;99.90;;;;;;4906718;29;20196;-79
2022/09/14 00:29:20;;;;;;;4.03;3.17;;;18.70;99.90;;;;;;4889240;29;20681;-78
2022/09/14 00:31:46;;;;;;;3.53;3.10;;;18.70;99.90;;;;;;4906109;29;20196;-79
2022/09/14 00:34:17;;;;;;;3.40;3.10;;;18.70;99.90;;;;;;4905494;29;20218;-78
2022/09/14 00:36:46;;;;;;;4.60;3.43;;;18.70;99.90;;;;;;4888267;29;20294;-79
2022/09/14 00:39:14;;;;;;;3.40;3.10;;;18.70;99.90;;;;;;4889077;29;20214;-78
2022/09/14 00:41:43;;;;;;;3.77;3.40;;;18.70;99.90;;;;;;4904728;29;20210;-79
2022/09/14 00:44:43;;;;;;;3.20;2.90;;;18.60;99.90;;;;;;4887469;29;20219;-78
2022/09/14 00:47:13;;;;;;;5.60;3.77;;;18.60;99.90;;;;;;4886852;29;20232;-79
2022/09/14 00:49:43;;;;;;;4.20;3.33;;;18.60;99.90;;;;;;4904149;29;20228;-79
2022/09/14 00:52:15;;;;;;;4.53;3.10;;;18.60;99.90;;;;;;4903740;29;20223;-79
2022/09/14 00:54:45;;;;;;;4.17;3.10;;;18.60;99.90;;;;;;4904530;29;20219;-78
2022/09/14 00:57:12;;;;;;;3.67;3.33;;;18.60;99.90;;;;;;4903350;29;20426;-78
2022/09/14 00:59:41;;;;;;;4.67;3.50;;;18.60;99.90;;;;;;4885844;29;20624;-79
2022/09/14 01:02:10;;;;;;;4.53;3.30;;;18.60;99.90;;;;;;4887056;29;20207;-78
2022/09/14 01:04:37;;;;;;;4.90;3.33;;;18.60;99.90;;;;;;4903314;29;20228;-79
2022/09/14 01:07:13;;;;;;;4.57;3.30;;;18.60;99.90;;;;;;4904395;29;20196;-79
2022/09/14 01:09:46;;;;;;;3.30;3.00;;;18.60;99.90;;;;;;4904390;29;20660;-78
2022/09/14 01:12:20;;;;;;;7.07;3.33;;;18.70;99.90;;;;;;4887503;29;20208;-78
2022/09/14 01:14:54;;;;;;;4.13;3.33;;;18.70;99.90;;;;;;4904722;29;20250;-79
2022/09/14 01:17:28;;;;;;;3.97;3.37;;;18.70;99.90;;;;;;4905314;29;20310;-79
2022/09/14 01:20:10;;;;;;;3.77;3.47;;;18.70;99.90;;;;;;4905363;29;20195;-79
2022/09/14 01:22:45;;;;;;;3.27;3.00;;;18.70;99.90;;;;;;4905191;29;20206;-78
2022/09/14 01:25:34;;;;;;;4.00;3.37;;;18.80;99.90;;;;;;4905130;29;20229;-78
2022/09/14 01:28:05;;;;;;;4.27;3.63;;;18.80;99.90;;;;;;4904513;29;20670;-79
2022/09/14 01:30:34;;;;;;;3.13;2.93;;;18.70;99.90;;;;;;4904147;29;20275;-78
2022/09/14 01:33:07;;;;;;;3.40;3.10;;;18.70;99.90;;;;;;4903408;29;20198;-78
2022/09/14 01:35:38;;;;;;;3.50;3.20;;;18.60;99.90;;;;;;4901526;29;20236;-78
2022/09/14 01:38:10;;;;;;;4.33;3.20;;;18.60;99.90;;;;;;4900495;29;20279;-78
2022/09/14 01:40:39;;;;;;;4.27;3.30;;;18.60;99.90;;;;;;4883515;29;20234;-77
2022/09/14 01:43:11;;;;;;;5.70;3.60;;;18.60;99.90;;;;;;4900445;29;20200;-78
2022/09/14 01:45:41;;;;;;;6.47;5.90;;;18.50;99.90;;;;;;4900287;29;20219;-78
2022/09/14 01:48:11;;;;;;;8.40;7.70;;;18.50;99.90;;;;;;4883949;29;20282;-78
2022/09/14 01:50:40;;;;;;;8.17;7.57;;;18.50;99.90;;;;;;4900816;29;20199;-78
2022/09/14 01:53:12;;;;;;;9.77;8.03;;;18.40;99.90;;;;;;4883775;29;20582;-78
2022/09/14 01:55:43;;;;;;;9.00;8.20;;;18.40;99.90;;;;;;4900183;29;20203;-78
2022/09/14 01:58:15;;;;;;;7.87;7.17;;;18.40;99.90;;;;;;4882732;29;20704;-78
2022/09/14 02:00:45;;;;;;;8.70;8.00;;;18.30;99.90;;;;;;4899885;29;20198;-79
2022/09/14 02:03:15;;;;;;;8.87;8.17;;;18.30;99.90;;;;;;4899972;29;20682;-78
2022/09/14 02:05:50;;;;;;;9.07;8.37;;;18.30;99.90;;;;;;4899564;29;20231;-78
2022/09/14 02:08:17;;;;;;;8.57;7.87;;;18.30;99.90;;;;;;4898917;29;20217;-78
2022/09/14 02:10:44;;;;;;;8.87;8.23;;;18.20;99.90;;;;;;4885190;29;20248;-78
2022/09/14 02:13:13;;;;;;;8.37;7.77;;;18.20;99.90;;;;;;4886042;29;20210;-78
2022/09/14 02:15:39;;;;;;;8.23;7.53;;;18.20;99.90;;;;;;4886299;29;20197;-78
2022/09/14 02:18:06;;;;;;;8.63;7.93;;;18.20;99.90;;;;;;4903451;29;20209;-79
2022/09/14 02:20:38;;;;;;;8.40;7.80;;;18.30;99.90;;;;;;4903132;29;20194;-78
2022/09/14 02:23:05;;;;;;;8.17;7.60;;;18.20;99.90;;;;;;4884680;29;20209;-77
2022/09/14 02:25:34;;;;;;;8.97;8.30;;;18.30;99.90;;;;;;4885255;29;20262;-78
2022/09/14 02:28:00;;;;;;;8.17;7.67;;;18.30;99.90;;;;;;4900428;29;20189;-78
2022/09/14 02:30:33;;;;;;;9.07;8.30;;;18.30;99.90;;;;;;4900290;29;20688;-78
2022/09/14 02:33:08;;;;;;;9.23;8.43;;;18.20;99.90;;;;;;4883807;29;20206;-78
2022/09/14 02:35:40;;;;;;;8.37;7.77;;;18.20;99.90;;;;;;4883504;29;20204;-78
2022/09/14 02:38:14;;;;;;;8.60;7.90;;;18.30;99.90;;;;;;4883702;29;20298;-78
2022/09/14 02:40:48;;;;;;;9.10;8.50;;;18.20;99.90;;;;;;4900166;29;20202;-78
2022/09/14 02:43:28;;;;;;;8.33;7.73;;;18.20;99.90;;;;;;4900251;29;20708;-78
2022/09/14 02:46:04;;;;;;;8.23;7.63;;;18.20;99.90;;;;;;4902945;29;20244;-78
2022/09/14 02:48:38;;;;;;;8.77;8.07;;;18.20;99.90;;;;;;4902263;29;20190;-79
2022/09/14 02:51:13;;;;;;;8.43;7.73;;;18.20;99.90;;;;;;4906524;29;20196;-80
2022/09/14 02:53:44;;;;;;;9.17;8.57;;;18.20;99.90;;;;;;4892843;29;20224;-79
2022/09/14 02:56:12;;;;;;;9.47;8.80;;;18.30;99.90;;;;;;4899675;29;20229;-77
2022/09/14 02:58:41;;;;;;;8.40;7.80;;;18.30;99.90;;;;;;4915650;29;20683;-80
2022/09/14 03:01:12;;;;;;;9.10;8.50;;;18.30;99.90;;;;;;4895391;29;20211;-79
2022/09/14 03:03:39;;;;;;;9.10;8.50;;;18.30;99.90;;;;;;4908692;29;20278;-78
2022/09/14 03:06:06;;;;;;;8.63;8.00;;;18.30;99.90;;;;;;4901985;29;20669;-78
2022/09/14 03:08:34;;;;;;;8.90;8.30;;;18.30;99.90;;;;;;4902856;29;20189;-78
2022/09/14 03:11:00;;;;;;;9.10;8.40;;;18.30;99.90;;;;;;4894936;29;20209;-80
2022/09/14 03:13:27;;;;;;;9.27;8.60;;;18.40;99.90;;;;;;4892349;29;20222;-79
2022/09/14 03:15:54;;;;;;;9.70;9.00;;;18.30;99.90;;;;;;4892375;29;20201;-78
2022/09/14 03:18:22;;;;;;;10.67;9.83;;;18.20;99.90;;;;;;4883405;29;20211;-78
2022/09/14 03:20:49;;;;;;;10.27;9.40;;;18.20;99.90;;;;;;4881125;29;20644;-78
2022/09/14 03:23:16;;;;;;;10.60;9.90;;;18.10;99.90;;;;;;4900716;29;20210;-79
2022/09/14 03:25:44;;;;;;;10.70;9.80;;;18.10;99.90;;;;;;4886439;29;20257;-79
2022/09/14 03:28:12;;;;;;;11.20;10.27;;;18.20;99.90;;;;;;4902282;29;20245;-78
2022/09/14 03:30:39;;;;;;;11.30;10.50;;;18.10;99.90;;;;;;4899189;29;20202;-78
2022/09/14 03:33:06;;;;;;;11.00;10.10;;;18.10;99.90;;;;;;4884565;29;20269;-77
2022/09/14 03:35:34;;;;;;;11.30;10.50;;;18.20;99.90;;;;;;4900834;29;20249;-78
2022/09/14 03:38:02;;;;;;;11.17;10.37;;;18.20;99.90;;;;;;4882822;29;20286;-74
2022/09/14 03:40:29;;;;;;;10.50;9.60;;;18.20;99.90;;;;;;4898268;29;20221;-77
2022/09/14 03:42:55;;;;;;;10.53;9.73;;;18.20;99.90;;;;;;4896474;29;20190;-75
2022/09/14 03:45:22;;;;;;;10.47;9.77;;;18.20;99.90;;;;;;4879714;29;20660;-75
2022/09/14 03:47:50;;;;;;;11.13;10.40;;;18.20;99.90;;;;;;4896375;29;20214;-75
2022/09/14 03:50:18;;;;;;;12.23;11.30;;;18.10;99.90;;;;;;4879323;29;20233;-75
2022/09/14 03:52:47;;;;;;;11.47;10.43;;;18.10;99.90;;;;;;4896363;29;20688;-74
2022/09/14 03:55:14;;;;;;;11.27;10.30;;;18.10;99.90;;;;;;4896540;29;20247;-75
2022/09/14 03:57:40;;;;;;;12.87;11.87;;;18.10;99.90;;;;;;4896289;29;20213;-74
2022/09/14 04:00:08;;;;;;;13.10;11.90;;;18.00;99.90;;;;;;4896216;29;20226;-74
2022/09/14 04:02:38;;;;;;;13.63;12.53;;;18.00;99.90;;;;;;4879467;29;20214;-74
2022/09/14 04:05:05;;;;;;;13.10;12.00;;;18.00;99.90;;;;;;4879426;29;20233;-75
2022/09/14 04:07:32;;;;;;;13.00;12.00;;;18.00;99.90;;;;;;4879509;29;20586;-74
2022/09/14 04:10:00;;;;;;;12.83;11.83;;;18.00;99.90;;;;;;4896132;29;20217;-75
2022/09/14 04:12:27;;;;;;;12.43;11.53;;;18.00;99.90;;;;;;4897378;29;20230;-75
2022/09/14 04:14:54;;;;;;;12.33;11.50;;;18.00;99.90;;;;;;4899445;29;20277;-74
2022/09/14 04:17:21;;;;;;;11.97;11.17;;;18.00;99.90;;;;;;4882570;29;20224;-74
2022/09/14 04:19:47;;;;;;;12.27;11.47;;;18.00;99.90;;;;;;4899177;29;20572;-75
2022/09/14 04:22:14;;;;;;;11.83;11.03;;;18.00;99.90;;;;;;4882652;29;20242;-75
2022/09/14 04:24:41;;;;;;;12.23;11.43;;;18.00;99.90;;;;;;4882358;29;20251;-75
2022/09/14 04:27:10;;;;;;;11.73;10.90;;;18.00;99.90;;;;;;4882365;29;20562;-74
2022/09/14 04:29:37;;;;;;;12.03;11.23;;;18.00;99.90;;;;;;4882428;29;20229;-75
2022/09/14 04:32:03;;;;;;;12.47;11.57;;;18.00;99.90;;;;;;4899239;29;20245;-75
2022/09/14 04:34:30;;;;;;;11.57;10.83;;;18.00;99.90;;;;;;4899163;29;20240;-75
2022/09/14 04:36:57;;;;;;;11.27;10.57;;;18.00;99.90;;;;;;4899115;29;20229;-75
2022/09/14 04:39:25;;;;;;;11.27;10.47;;;18.00;99.90;;;;;;4898854;29;20260;-75
2022/09/14 04:41:52;;;;;;;11.10;10.30;;;18.00;99.90;;;;;;4899107;29;20229;-75
2022/09/14 04:44:20;;;;;;;10.33;9.63;;;18.10;99.90;;;;;;4899066;29;20270;-75
2022/09/14 04:46:47;;;;;;;9.90;9.20;;;18.10;99.90;;;;;;4899010;29;20198;-75
2022/09/14 04:49:14;;;;;;;9.80;9.10;;;18.10;99.90;;;;;;4898971;29;20323;-75
2022/09/14 04:51:41;;;;;;;11.27;10.47;;;18.10;99.90;;;;;;4898770;29;20196;-75
2022/09/14 04:54:07;;;;;;;12.50;11.67;;;18.10;99.90;;;;;;4882153;29;20326;-75
2022/09/14 04:56:36;;;;;;;13.80;13.00;;;18.10;99.90;;;;;;4898777;29;20225;-75
2022/09/14 04:59:04;;;;;;;14.43;13.43;;;18.20;99.90;;;;;;4881887;29;20234;-74
2022/09/14 05:01:35;;;;;;;15.33;14.40;;;18.20;99.90;;;;;;4898538;29;20257;-75
2022/09/14 05:04:03;;;;;;;16.53;15.23;;;18.10;99.90;;;;;;4881846;29;20295;-75
2022/09/14 05:06:31;;;;;;;16.23;15.07;;;18.10;99.90;;;;;;4898667;29;20303;-74
2022/09/14 05:08:59;;;;;;;15.50;14.53;;;18.10;99.90;;;;;;4881692;29;20747;-74
2022/09/14 05:11:28;;;;;;;15.00;14.10;;;18.00;99.90;;;;;;4898411;29;20202;-75
2022/09/14 05:13:56;;;;;;;14.63;13.53;;;18.10;99.90;;;;;;4898422;29;20222;-75
2022/09/14 05:16:24;;;;;;;14.50;13.60;;;18.10;99.90;;;;;;4898569;29;20200;-75
2022/09/14 05:18:54;;;;;;;14.47;13.37;;;18.10;99.90;;;;;;4881720;29;20232;-75
2022/09/14 05:21:22;;;;;;;13.50;12.60;;;18.10;99.90;;;;;;4881201;29;20201;-75
2022/09/14 05:23:53;;;;;;;13.87;12.87;;;18.10;99.90;;;;;;4906332;23;20428;-77
2022/09/14 05:26:20;;;;;;;13.90;12.90;;;18.20;99.90;;;;;;4917715;29;20292;-82
2022/09/14 05:28:50;;;;;;;14.10;13.20;;;18.20;99.90;;;;;;4902410;29;20579;-79
2022/09/14 05:31:17;;;;;;;12.90;12.00;;;18.20;99.90;;;;;;4900969;29;20264;-79
2022/09/14 05:33:44;;;;;;;13.93;13.13;;;18.30;99.90;;;;;;4919051;29;20194;-79
2022/09/14 05:36:12;;;;;;;13.87;12.87;;;18.30;99.90;;;;;;4901357;29;20208;-80
2022/09/14 05:38:40;;;;;;;14.00;13.10;;;18.40;99.90;;;;;;4918323;29;20216;-79
2022/09/14 05:41:09;;;;;;;14.07;13.23;;;18.40;99.90;;;;;;4901345;29;20242;-79
2022/09/14 05:43:36;;;;;;;13.63;12.70;;;18.50;99.90;;;;;;4901177;29;20249;-80
2022/09/14 05:46:04;;;;;;;14.97;13.80;;;18.40;99.90;;;;;;4918616;29;20202;-80
2022/09/14 05:48:31;;;;;;;14.40;13.30;;;18.50;99.90;;;;;;4918753;29;20629;-79
2022/09/14 05:50:59;;;;;;;14.23;12.90;;;18.50;99.90;;;;;;4901462;29;20209;-79
2022/09/14 05:53:28;;;;;;;14.47;13.13;;;18.50;99.90;;;;;;4901196;29;20205;-79
2022/09/14 05:56:02;;;;;;;14.43;13.20;;;18.60;99.90;;;;;;4918053;29;20744;-80
2022/09/14 05:58:29;;;;;;;13.90;13.00;;;18.60;99.90;;;;;;4918108;29;20261;-80
2022/09/14 06:00:57;;;;;;;9.07;8.37;;;18.70;99.90;;;;;;4901018;29;20734;-79
2022/09/14 06:03:23;;;;;;;14.07;13.17;;;18.80;99.90;;;;;;4917957;29;20287;-80
2022/09/14 06:05:53;;;;;;;12.93;12.03;;;18.80;99.90;;;;;;4918048;29;20273;-78
2022/09/14 06:08:21;;;;;;;14.20;13.30;;;19.00;99.90;;;;;;4902971;29;20245;-79
2022/09/14 06:10:49;;;;;;;14.27;13.37;;;19.10;99.90;;;;;;4901433;29;20211;-80
2022/09/14 06:13:16;;;;;;;14.47;13.57;;;19.20;99.90;;;;;;4917453;29;20220;-80
2022/09/14 06:15:43;;;;;;;14.73;13.83;;;19.30;99.90;;;;;;4900742;29;20215;-79
2022/09/14 06:18:09;;;;;;;14.53;13.63;;;19.50;99.90;;;;;;4917363;29;20227;-79
2022/09/14 06:20:36;;;;;;;9.30;8.60;;;19.60;99.90;;;;;;4900344;29;20207;-79
2022/09/14 06:23:03;;;;;;;13.57;12.67;;;19.70;99.90;;;;;;4901373;29;20203;-80
2022/09/14 06:25:30;;;;;;;13.37;12.57;;;19.70;99.90;;;;;;4900087;29;20239;-79
2022/09/14 06:27:58;;;;;;;13.60;12.80;;;19.80;99.90;;;;;;4900534;29;20267;-80
2022/09/14 06:30:25;;;;;;;13.67;12.77;;;19.80;99.90;;;;;;4916991;29;20202;-79
2022/09/14 06:32:52;;;;;;;8.33;7.83;;;19.80;99.90;;;;;;4900503;29;20664;-79
2022/09/14 06:35:18;;;;;;;8.77;8.10;;;19.80;99.90;;;;;;4916589;29;20679;-79
2022/09/14 06:37:45;;;;;;;13.60;12.77;;;19.70;99.90;;;;;;4902342;29;20703;-80
2022/09/14 06:40:12;;;;;;;15.37;14.47;;;19.70;99.90;;;;;;4917858;29;20574;-79
2022/09/14 06:42:39;;;;;;;13.73;12.93;;;19.70;99.90;;;;;;4935784;29;20199;-79
2022/09/14 06:45:08;;;;;;;14.37;13.30;;;19.60;99.90;;;;;;4935907;29;20219;-79
2022/09/14 06:47:35;;;;;;;9.40;8.70;;;19.60;99.90;;;;;;4935714;29;20194;-79
2022/09/14 06:50:02;;;;;;;7.83;7.20;;;19.70;99.90;;;;;;4918908;29;20210;-79
2022/09/14 06:52:28;;;;;;;9.30;8.70;;;19.70;99.90;;;;;;4918590;29;20227;-79
2022/09/14 06:54:55;;;;;;;8.63;7.93;;;19.70;99.90;;;;;;4935499;29;20215;-79
2022/09/14 06:57:22;;;;;;;11.97;11.20;;;19.80;99.90;;;;;;4918363;29;20287;-79
2022/09/14 06:59:49;;;;;;;12.03;11.33;;;19.90;99.90;;;;;;4918350;29;20286;-80
2022/09/14 07:02:17;;;;;;;14.63;13.63;;;20.00;99.90;;;;;;4918564;29;20668;-80
2022/09/14 07:04:44;;;;;;;13.47;12.37;;;20.20;99.90;;;;;;4918601;29;20215;-79
2022/09/14 07:07:11;;;;;;;13.03;12.23;;;20.30;99.90;;;;;;4918651;29;20207;-80
2022/09/14 07:09:38;;;;;;;13.97;12.97;;;20.40;99.90;;;;;;4935317;29;20617;-79
2022/09/14 07:12:05;;;;;;;14.90;13.50;;;20.50;99.90;;;;;;4906674;29;20672;-79
2022/09/14 07:14:32;;;;;;;14.27;13.30;;;20.60;99.90;;;;;;4899627;29;20231;-80
2022/09/14 07:16:58;;;;;;;14.33;13.50;;;20.70;99.90;;;;;;4899895;29;20207;-80
2022/09/14 07:19:27;;;;;;;13.90;13.10;;;20.90;99.90;;;;;;4916669;29;20632;-78
2022/09/14 07:21:53;;;;;;;13.70;12.90;;;21.10;99.90;;;;;;4916774;29;20192;-80
2022/09/14 07:24:20;;;;;;;13.77;12.97;;;21.50;99.90;;;;;;4916587;29;20592;-80
2022/09/14 07:26:47;;;;;;;4.50;4.10;;;21.70;99.90;;;;;;4917100;29;20198;-80
2022/09/14 07:29:16;;;;;;;11.77;10.97;;;21.90;99.90;;;;;;4916623;29;20184;-80
2022/09/14 07:31:44;;;;;;;9.80;9.20;;;22.10;99.90;;;;;;4899789;29;20436;-80
2022/09/14 07:34:12;;;;;;;6.00;5.50;;;22.30;99.90;;;;;;4916379;29;20220;-80
2022/09/14 07:36:40;;;;;;;4.40;4.00;;;22.40;99.90;;;;;;4916423;29;20565;-80
2022/09/14 07:39:10;;;;;;;5.87;4.87;;;22.40;99.90;;;;;;4916239;29;20212;-80
2022/09/14 07:41:37;;;;;;;12.00;11.10;;;22.50;99.90;;;;;;4899204;29;20299;-80
2022/09/14 07:44:06;;;;;;;9.83;8.77;;;22.60;99.90;;;;;;4899625;29;20701;-80
2022/09/14 07:46:38;;;;;;;4.20;3.80;;;22.60;99.90;;;;;;4916645;29;20260;-80
2022/09/14 07:49:06;;;;;;;5.57;5.07;;;22.80;99.90;;;;;;4902911;29;20287;-80
2022/09/14 07:51:35;;;;;;;10.10;9.20;;;23.10;99.90;;;;;;4902994;29;20661;-81
2022/09/14 07:54:04;;;;;;;10.27;9.40;;;23.50;99.90;;;;;;4903453;29;20227;-83
2022/09/14 07:56:31;;;;;;;4.83;3.80;;;23.90;99.90;;;;;;4908136;29;20200;-81
2022/09/14 07:58:59;;;;;;;3.93;3.53;;;24.20;99.90;;;;;;4907502;29;20275;-81
2022/09/14 08:01:28;;;;;;;9.73;9.03;;;24.60;99.90;;;;;;4907889;29;20299;-81
2022/09/14 08:03:55;;;;;;;11.10;9.50;;;24.80;99.90;;;;;;4924687;29;20230;-81
2022/09/14 08:06:24;;;;;;;10.10;9.20;;;24.90;99.90;;;;;;4923862;29;20204;-81
2022/09/14 08:08:53;;;;;;;10.33;9.43;;;25.10;99.90;;;;;;4923867;29;20552;-82
2022/09/14 08:11:23;;;;;;;10.67;9.87;;;25.30;99.90;;;;;;4923332;29;20292;-81
2022/09/14 08:13:51;;;;;;;9.87;9.10;;;25.50;99.90;;;;;;4923327;29;20640;-81
2022/09/14 08:16:19;;;;;;;10.63;9.83;;;25.60;99.90;;;;;;4923261;29;20295;-81
2022/09/14 08:18:47;;;;;;;10.90;10.10;;;25.70;99.90;;;;;;4922541;29;20216;-81
2022/09/14 08:21:16;;;;;;;11.40;10.67;;;25.50;99.90;;;;;;4922590;29;20230;-83
2022/09/14 08:23:44;;;;;;;11.70;10.80;;;25.30;99.90;;;;;;4922656;29;20608;-80
2022/09/14 08:26:13;;;;;;;10.90;10.10;;;25.10;99.90;;;;;;4922241;29;20208;-81
2022/09/14 08:28:42;;;;;;;10.67;9.97;;;24.90;99.90;;;;;;4921411;29;20204;-81
2022/09/14 08:31:10;;;;;;;5.27;4.50;;;24.90;99.90;;;;;;4921033;29;20228;-83
2022/09/14 08:33:39;;;;;;;4.27;3.63;;;24.90;99.90;;;;;;4919620;29;20218;-81
2022/09/14 08:36:08;;;;;;;5.77;3.87;;;25.10;99.90;;;;;;4920782;29;20626;-81
2022/09/14 08:38:34;;;;;;;7.50;6.37;;;25.50;99.90;;;;;;4918621;29;20207;-80
2022/09/14 08:41:11;;;;;;;6.90;6.30;;;25.90;99.90;;;;;;4921767;29;20558;-80
2022/09/14 08:43:39;;;;;;;4.17;3.80;;;26.20;99.90;;;;;;4919287;29;20200;-81
2022/09/14 08:46:14;;;;;;;10.57;9.93;;;26.10;99.90;;;;;;4920761;29;20200;-81
2022/09/14 08:48:46;;;;;;;9.73;9.03;;;25.80;99.90;;;;;;4918948;29;20287;-80
2022/09/14 08:51:13;;;;;;;10.50;9.80;;;25.50;99.90;;;;;;4920550;29;20287;-80
2022/09/14 08:53:41;;;;;;;4.00;3.60;;;25.60;99.90;;;;;;4919987;29;20200;-82
2022/09/14 08:56:14;;;;;;;9.57;8.77;;;26.10;99.90;;;;;;4920287;29;20214;-83
2022/09/14 08:58:57;;;;;;;9.80;9.20;;;26.70;99.90;;;;;;4920196;29;20291;-81
2022/09/14 09:01:36;;;;;;;11.43;10.70;;;27.30;99.90;;;;;;4919984;29;20695;-81
2022/09/14 09:04:18;;;;;;;10.53;9.67;;;27.60;99.90;;;;;;4920199;29;20310;-82
2022/09/14 09:06:51;;;;;;;9.93;9.10;;;28.10;99.90;;;;;;4920547;29;20176;-81
2022/09/14 09:09:24;;;;;;;11.33;10.63;;;28.40;99.90;;;;;;4920542;29;20558;-81
2022/09/14 09:11:53;;;;;;;11.47;10.77;;;28.50;99.90;;;;;;4920792;29;20250;-82
2022/09/14 09:14:24;;;;;;;11.03;10.33;;;28.60;99.90;;;;;;4919580;29;20220;-82
2022/09/14 09:16:55;;;;;;;11.63;10.87;;;28.70;99.90;;;;;;4919156;29;20283;-81
2022/09/14 09:19:28;;;;;;;11.60;10.70;;;28.90;99.90;;;;;;4919774;29;20227;-81
2022/09/14 09:21:55;;;;;;;11.17;10.27;;;29.20;99.90;;;;;;4919796;29;20287;-82
2022/09/14 09:24:28;;;;;;;10.90;10.20;;;29.10;99.90;;;;;;4919924;29;20638;-81
2022/09/14 09:26:54;;;;;;;7.80;7.30;;;28.90;99.90;;;;;;4919578;29;20566;-81
2022/09/14 09:29:22;;;;;;;10.80;10.00;;;28.70;99.90;;;;;;4919016;29;20643;-80
2022/09/14 09:32:14;;;;;;;11.27;10.30;;;28.80;99.90;;;;;;4918712;29;20202;-81
2022/09/14 09:34:51;;;;;;;10.37;9.67;;;28.40;99.90;;;;;;4918370;29;20233;-81
2022/09/14 09:37:41;;;;;;;8.30;7.70;;;28.10;99.90;;;;;;4907464;29;20268;-81
2022/09/14 09:40:16;;;;;;;9.80;9.10;;;27.50;99.90;;;;;;4900675;29;20271;-81
2022/09/14 09:43:07;;;;;;;10.03;9.33;;;27.00;99.90;;;;;;4900946;29;20641;-81
2022/09/14 09:45:51;;;;;;;9.83;9.13;;;26.70;99.90;;;;;;4905607;29;20640;-80
2022/09/14 09:48:23;;;;;;;9.07;8.43;;;27.10;99.90;;;;;;4937141;29;20242;-80
2022/09/14 09:51:00;;;;;;;9.77;9.03;;;27.00;99.90;;;;;;4937219;29;20200;-81
2022/09/14 09:53:27;;;;;;;4.90;4.50;;;27.10;99.90;;;;;;4920118;29;20262;-81
2022/09/14 09:55:54;;;;;;;4.00;3.27;;;26.90;99.90;;;;;;4936604;29;20611;-82
2022/09/14 09:58:31;;;;;;;5.03;4.33;;;26.60;99.90;;;;;;4919421;29;20231;-81
2022/09/14 10:01:00;;;;;;;3.27;3.00;;;26.60;99.90;;;;;;4922289;29;20233;-80
2022/09/14 10:03:31;;;;;;;3.73;3.30;;;26.90;99.90;;;;;;4920874;29;20199;-81
2022/09/14 10:06:04;;;;;;;3.50;3.20;;;27.30;99.90;;;;;;4918554;29;20625;-79
2022/09/14 10:08:33;;;;;;;3.77;3.20;;;27.50;99.90;;;;;;4917122;29;20260;-81
2022/09/14 10:11:01;;;;;;;6.63;3.27;;;27.80;99.90;;;;;;4916276;29;20562;-81
2022/09/14 10:13:31;;;;;;;3.60;2.97;;;27.80;99.90;;;;;;4900458;29;20206;-81
2022/09/14 10:16:13;;;;;;;4.23;3.40;;;27.80;99.90;;;;;;4917047;29;20200;-81
2022/09/14 10:18:46;;;;;;;4.63;3.07;;;27.60;99.90;;;;;;4917377;29;20200;-81
2022/09/14 10:21:16;;;;;;;5.33;4.57;;;27.50;99.90;;;;;;4900611;29;20858;-82
2022/09/14 10:23:43;;;;;;;6.23;3.03;;;27.70;99.90;;;;;;4902663;29;20247;-81
2022/09/14 10:26:21;;;;;;;3.67;3.00;;;27.80;99.90;;;;;;4920206;29;20673;-82
2022/09/14 10:28:50;;;;;;;6.20;5.80;;;27.80;99.90;;;;;;4919433;29;20195;-81
2022/09/14 10:31:24;;;;;;;6.87;6.30;;;27.80;99.90;;;;;;4916742;29;20192;-81
2022/09/14 10:33:55;;;;;;;6.93;6.43;;;27.90;99.90;;;;;;4899964;29;20298;-81
2022/09/14 10:36:26;;;;;;;5.50;5.10;;;28.00;99.90;;;;;;4917367;29;20412;-81
2022/09/14 10:38:57;;;;;;;7.70;7.10;;;28.00;99.90;;;;;;4917068;29;20220;-82
2022/09/14 10:41:29;;;;;;;4.37;4.07;;;28.00;99.90;;;;;;4920723;29;20310;-81
2022/09/14 10:44:41;;;;;;;4.67;3.00;;;28.00;99.90;;;;;;4904532;29;20226;-82
2022/09/14 10:47:23;;;;;;;3.87;3.00;;;28.00;99.90;;;;;;4917184;29;20247;-81
2022/09/14 10:50:03;;;;;;;3.43;3.00;;;28.00;99.90;;;;;;4900574;29;20200;-82
2022/09/14 10:52:39;;;;;;;7.80;7.30;;;27.90;99.90;;;;;;4917743;29;20239;-81
2022/09/14 10:55:30;;;;;;;7.57;6.97;;;27.90;99.90;;;;;;4917189;29;20211;-82
2022/09/14 10:58:11;;;;;;;7.50;6.90;;;27.90;99.90;;;;;;4917616;29;20195;-81
2022/09/14 11:00:46;;;;;;;6.57;6.10;;;27.90;99.90;;;;;;4916185;29;20208;-81
2022/09/14 11:03:24;;;;;;;6.70;6.20;;;27.90;99.90;;;;;;4917282;29;20661;-81
2022/09/14 11:06:04;;;;;;;6.90;6.50;;;27.90;99.90;;;;;;4899722;29;20227;-81
2022/09/14 11:08:33;;;;;;;6.50;6.10;;;27.90;99.90;;;;;;4900209;29;20199;-81
2022/09/14 11:11:16;;;;;;;6.97;6.47;;;28.00;99.90;;;;;;4918233;29;20192;-82
2022/09/14 11:13:53;;;;;;;6.73;6.30;;;27.90;99.90;;;;;;4900292;29;20220;-81
2022/09/14 11:17:00;;;;;;;7.53;6.83;;;27.80;99.90;;;;;;4905022;29;20210;-82
2022/09/14 11:19:38;;;;;;;8.20;7.53;;;27.70;99.90;;;;;;4922474;29;20255;-82
2022/09/14 11:22:12;;;;;;;8.20;7.60;;;27.50;99.90;;;;;;4923569;29;20195;-82
2022/09/14 11:24:44;;;;;;;8.03;7.33;;;27.50;99.90;;;;;;4926678;29;20223;-82
2022/09/14 11:27:18;;;;;;;3.67;3.37;;;27.40;99.90;;;;;;4925577;29;20226;-81
2022/09/14 11:29:52;;;;;;;5.03;2.70;;;27.30;99.90;;;;;;4910018;29;20381;-82
2022/09/14 11:32:24;;;;;;;7.50;7.00;;;27.30;99.90;;;;;;4908949;29;20200;-82
2022/09/14 11:34:56;;;;;;;8.30;7.70;;;27.30;99.90;;;;;;4909432;29;20224;-81
2022/09/14 11:37:32;;;;;;;8.00;7.30;;;27.30;99.90;;;;;;4907364;29;20204;-81
2022/09/14 11:40:06;;;;;;;7.63;7.00;;;27.30;99.90;;;;;;4924222;29;20633;-82
2022/09/14 11:42:37;;;;;;;7.50;6.97;;;27.30;99.90;;;;;;4907392;29;20677;-82
2022/09/14 11:45:13;;;;;;;7.70;7.10;;;27.40;99.90;;;;;;4924489;29;20220;-82
2022/09/14 11:47:47;;;;;;;7.30;6.73;;;27.40;99.90;;;;;;4906584;29;20203;-81
2022/09/14 11:50:19;;;;;;;8.63;7.60;;;27.30;99.90;;;;;;4905988;29;20664;-82
2022/09/14 11:52:54;;;;;;;7.60;7.10;;;27.30;99.90;;;;;;4905497;29;20207;-81
2022/09/14 11:55:21;;;;;;;7.20;6.70;;;27.20;99.90;;;;;;4922658;29;20219;-81
2022/09/14 11:57:48;;;;;;;7.50;7.00;;;27.20;99.90;;;;;;4905752;29;20203;-81
2022/09/14 12:01:02;;;;;;;7.67;7.07;;;27.30;99.90;;;;;;4921894;29;20298;-81
2022/09/14 12:04:03;;;;;;;7.97;7.20;;;27.40;99.90;;;;;;4846280;29;20202;-81
2022/09/14 12:06:50;;;;;;;8.37;7.67;;;27.20;99.90;;;;;;4859868;29;20206;-82
2022/09/14 12:09:42;;;;;;;9.00;8.30;;;27.00;99.90;;;;;;4902279;29;20203;-82
2022/09/14 12:12:28;;;;;;;11.33;10.33;;;26.80;99.90;;;;;;4904998;29;20211;-82
2022/09/14 12:15:00;;;;;;;10.87;9.40;;;26.60;99.90;;;;;;4904380;29;20226;-82
2022/09/14 12:17:30;;;;;;;11.20;10.03;;;26.40;99.90;;;;;;4923622;29;20635;-82
2022/09/14 12:20:14;;;;;;;8.20;5.93;;;26.30;99.90;;;;;;4924418;29;20752;-83
2022/09/14 12:22:42;;;;;;;11.03;8.33;;;26.10;99.90;;;;;;4922977;29;20208;-81
2022/09/14 12:25:17;;;;;;;10.33;9.43;;;26.10;99.90;;;;;;4905264;29;20232;-82
2022/09/14 12:27:46;;;;;;;11.57;10.47;;;25.90;99.90;;;;;;4903791;29;20204;-81
2022/09/14 12:30:55;;;;;;;13.87;12.57;;;25.60;99.90;;;;;;4905344;29;20255;-81
2022/09/14 12:34:03;;;;;;;10.43;9.60;;;25.30;99.90;;;;;;4901787;29;20551;-78
2022/09/14 12:37:02;;;;;;;10.63;9.83;;;25.10;99.90;;;;;;4920812;29;20673;-81
2022/09/14 12:39:31;;;;;;;8.83;8.17;;;24.90;99.90;;;;;;4903944;29;20744;-80
2022/09/14 12:42:23;;;;;;;8.87;8.20;;;24.60;99.90;;;;;;4904017;29;20224;-81
2022/09/14 12:44:50;;;;;;;8.53;7.80;;;24.30;99.90;;;;;;4904460;29;20287;-81
2022/09/14 12:47:49;;;;;;;8.93;8.20;;;24.20;99.90;;;;;;4902331;29;20624;-80
2022/09/14 12:50:19;;;;;;;9.00;8.10;;;24.00;99.90;;;;;;4920552;29;20202;-82
2022/09/14 12:52:58;;;;;;;8.67;8.07;;;23.90;99.90;;;;;;4921405;29;20204;-79
2022/09/14 12:55:43;;;;;;;8.73;8.00;;;23.80;99.90;;;;;;4901641;29;20223;-79
2022/09/14 12:58:43;;;;;;;8.50;7.80;;;23.80;99.90;;;;;;4919045;29;20216;-79
2022/09/14 13:01:28;;;;;;;8.40;7.80;;;23.80;99.90;;;;;;4918551;29;20271;-79